Time;durP1;ratioP1;P1;durP2;ratioP2;P2;SDS_P1;SDS_P2;PMS_P1;PMS_P2;Temp;Humidity;BMP_temperature;BMP_pressure;BME280_temperature;BME280_humidity;BME280_pressure;Samples;Min_cycle;Max_cycle;Signal;HPM_P1;HPM_P2
2023/05/02 00:00:23;;;;;;;5.87;5.37;;;;;;;13.07;56.36;97924.56;8381256;28;20244;-69
2023/05/02 00:04:26;;;;;;;6.60;5.97;;;;;;;13.29;56.34;97934.63;8381074;28;20244;-69
2023/05/02 00:08:31;;;;;;;6.33;5.83;;;;;;;13.26;56.51;97927.81;8381209;28;20301;-69
2023/05/02 00:12:34;;;;;;;6.33;5.73;;;;;;;13.17;56.22;97924.88;8381105;28;20510;-69
2023/05/02 00:16:36;;;;;;;6.00;5.37;;;;;;;13.11;56.29;97911.28;8380795;28;20557;-69
2023/05/02 00:20:40;;;;;;;6.27;5.67;;;;;;;13.09;56.75;97914.91;8381182;28;20229;-69
2023/05/02 00:24:45;;;;;;;5.97;5.47;;;;;;;13.10;56.38;97921.81;8380832;28;20225;-69
2023/05/02 00:28:47;;;;;;;5.87;5.47;;;;;;;13.11;56.87;97928.66;8380782;28;20233;-69
2023/05/02 00:32:52;;;;;;;5.90;5.40;;;;;;;13.14;56.21;97922.47;8380271;28;20517;-69
2023/05/02 00:36:55;;;;;;;6.17;5.20;;;;;;;13.05;56.18;97921.22;8380254;28;20233;-69
2023/05/02 00:41:00;;;;;;;5.90;5.50;;;;;;;12.96;56.46;97917.34;8380353;28;20229;-69
2023/05/02 00:45:03;;;;;;;6.00;5.50;;;;;;;12.88;56.51;97914.34;8380134;28;20221;-69
2023/05/02 00:49:06;;;;;;;6.40;5.90;;;;;;;12.98;56.23;97922.47;8379760;28;20233;-69
2023/05/02 00:53:10;;;;;;;7.20;6.60;;;;;;;12.96;56.00;97914.75;8379528;28;20248;-69
2023/05/02 00:57:14;;;;;;;7.47;6.80;;;;;;;12.97;56.34;97920.81;8379747;28;20384;-69
2023/05/02 01:01:30;;;;;;;5.90;5.40;;;;;;;13.03;55.51;97915.25;8379230;28;20236;-69
2023/05/02 01:05:43;;;;;;;6.70;6.10;;;;;;;13.03;55.43;97921.28;8378864;28;20233;-69
2023/05/02 01:09:53;;;;;;;12.03;9.63;;;;;;;13.04;55.48;97915.19;8379084;28;20447;-69
2023/05/02 01:13:59;;;;;;;10.20;8.47;;;;;;;12.99;56.19;97913.75;8378950;28;20228;-69
2023/05/02 01:18:03;;;;;;;9.47;8.47;;;;;;;12.92;56.20;97905.44;8378598;28;20225;-69
2023/05/02 01:22:09;;;;;;;8.57;7.67;;;;;;;12.83;56.85;97918.94;8378692;28;20233;-69
2023/05/02 01:26:20;;;;;;;8.17;7.40;;;;;;;12.80;56.68;97901.75;8378310;28;20225;-69
2023/05/02 01:30:25;;;;;;;9.10;8.30;;;;;;;12.85;57.02;97909.28;8377841;28;20229;-69
2023/05/02 01:34:28;;;;;;;7.77;7.13;;;;;;;12.30;58.48;97910.50;8377912;28;20255;-69
2023/05/02 01:38:31;;;;;;;8.43;7.63;;;;;;;12.54;57.55;97886.72;8378138;28;20314;-69
2023/05/02 01:42:36;;;;;;;8.53;7.73;;;;;;;12.43;58.50;97911.53;8377983;28;20404;-69
2023/05/02 01:46:43;;;;;;;8.17;7.37;;;;;;;12.63;57.66;97923.44;8378065;28;20224;-69
2023/05/02 01:50:47;;;;;;;8.30;7.60;;;;;;;12.37;57.12;97851.28;8377360;28;20228;-69
2023/05/02 01:54:51;;;;;;;8.57;7.40;;;;;;;12.76;57.39;97923.63;8377296;28;20404;-69
2023/05/02 01:58:56;;;;;;;8.57;7.70;;;;;;;12.60;57.28;97923.59;8377595;28;20229;-69
2023/05/02 02:03:00;;;;;;;9.23;8.33;;;;;;;12.60;57.43;97933.16;8376782;28;20410;-69
2023/05/02 02:07:07;;;;;;;8.20;7.50;;;;;;;12.51;57.79;97935.34;8377544;28;20480;-69
2023/05/02 02:11:12;;;;;;;8.30;7.60;;;;;;;12.55;57.55;97937.78;8377407;28;20229;-69
2023/05/02 02:15:19;;;;;;;8.47;7.57;;;;;;;12.62;57.21;97946.91;8377523;28;20224;-69
2023/05/02 02:19:23;;;;;;;8.50;7.80;;;;;;;12.63;57.33;97949.44;8376828;28;20233;-69
2023/05/02 02:23:26;;;;;;;9.20;8.37;;;;;;;12.55;57.37;97949.00;8377636;28;20421;-69
2023/05/02 02:27:29;;;;;;;8.27;7.57;;;;;;;12.57;57.84;97962.75;8377278;28;20351;-69
2023/05/02 02:31:32;;;;;;;3.87;3.57;;;;;;;13.67;74.66;97965.47;8376862;28;20229;-70
2023/05/02 02:35:39;;;;;;;8.30;7.60;;;;;;;13.00;57.29;97959.59;8376850;28;20237;-70
2023/05/02 02:39:49;;;;;;;8.20;7.50;;;;;;;12.88;56.69;97959.34;8376677;28;20291;-70
2023/05/02 02:43:59;;;;;;;8.37;7.53;;;;;;;12.79;56.47;97975.44;8376716;28;20229;-70
2023/05/02 02:48:10;;;;;;;8.60;7.90;;;;;;;12.70;57.17;97981.97;8376714;28;20233;-70
2023/05/02 02:52:21;;;;;;;8.73;7.93;;;;;;;12.46;57.39;97954.69;8376678;28;20453;-69
2023/05/02 02:56:28;;;;;;;8.73;7.93;;;;;;;12.51;57.59;97981.25;8375830;28;20225;-70
2023/05/02 03:00:32;;;;;;;8.67;7.87;;;;;;;12.57;57.61;98003.47;8376228;28;20237;-70
2023/05/02 03:04:36;;;;;;;8.70;7.87;;;;;;;12.48;57.56;98002.19;8375940;28;20439;-70
2023/05/02 03:08:41;;;;;;;8.33;7.60;;;;;;;12.52;57.46;98001.09;8376211;28;20420;-70
2023/05/02 03:12:44;;;;;;;8.23;7.53;;;;;;;12.25;57.04;97991.22;8377434;28;20225;-70
2023/05/02 03:16:47;;;;;;;7.10;6.50;;;;;;;12.26;56.71;98010.22;8382150;28;20232;-70
2023/05/02 03:20:49;;;;;;;6.70;6.07;;;;;;;12.20;55.67;98006.16;8382166;28;20326;-70
2023/05/02 03:24:54;;;;;;;6.53;5.93;;;;;;;12.27;56.10;98015.34;8382016;28;20418;-70
2023/05/02 03:28:57;;;;;;;7.70;7.00;;;;;;;12.26;56.01;98018.00;8381965;28;20539;-69
2023/05/02 03:33:00;;;;;;;7.77;7.03;;;;;;;12.22;55.93;98021.69;8381584;28;20335;-69
2023/05/02 03:37:03;;;;;;;7.17;6.47;;;;;;;12.20;56.48;98023.50;8381631;28;20237;-70
2023/05/02 03:41:07;;;;;;;7.33;6.73;;;;;;;12.13;55.81;97994.44;8381598;28;20232;-70
2023/05/02 03:45:11;;;;;;;7.27;6.67;;;;;;;12.23;56.34;98026.81;8381428;28;20221;-70
2023/05/02 03:49:13;;;;;;;7.73;7.13;;;;;;;12.21;57.10;98036.44;8381372;28;20232;-70
2023/05/02 03:53:19;;;;;;;7.83;7.03;;;;;;;11.91;56.89;97977.31;8381016;28;20552;-70
2023/05/02 03:57:24;;;;;;;8.07;7.37;;;;;;;12.20;57.10;98036.50;8380667;28;20236;-70
2023/05/02 04:01:26;;;;;;;8.83;7.47;;;;;;;12.22;56.98;98032.06;8380764;28;20237;-70
2023/05/02 04:05:29;;;;;;;7.77;7.00;;;;;;;12.36;57.08;98054.75;8379892;28;20239;-70
2023/05/02 04:09:32;;;;;;;9.30;8.30;;;;;;;12.27;57.16;98051.69;8380945;28;20236;-69
2023/05/02 04:13:36;;;;;;;9.13;8.33;;;;;;;12.32;56.94;98049.72;8380631;28;20552;-69
2023/05/02 04:17:39;;;;;;;8.70;7.90;;;;;;;12.33;57.39;98058.34;8380676;28;20221;-70
2023/05/02 04:21:42;;;;;;;9.03;8.13;;;;;;;12.38;57.25;98058.94;8380570;28;20297;-69
2023/05/02 04:25:51;;;;;;;8.17;7.43;;;;;;;12.45;57.03;98056.88;8379604;28;20236;-69
2023/05/02 04:29:55;;;;;;;8.63;7.83;;;;;;;12.33;57.84;98069.56;8379854;28;20424;-69
2023/05/02 04:33:58;;;;;;;7.73;7.13;;;;;;;12.53;57.80;98075.53;8379987;28;20235;-70
2023/05/02 04:38:04;;;;;;;8.53;7.80;;;;;;;12.50;57.10;98073.91;8379708;28;20236;-70
2023/05/02 04:42:06;;;;;;;8.50;7.80;;;;;;;12.52;57.74;98087.66;8378797;28;20227;-70
2023/05/02 04:46:11;;;;;;;9.07;8.20;;;;;;;12.62;57.65;98088.06;8379230;28;20239;-70
2023/05/02 04:50:14;;;;;;;8.67;7.77;;;;;;;12.64;57.41;98086.22;8378910;28;20259;-70
2023/05/02 04:54:17;;;;;;;9.13;8.27;;;;;;;12.42;58.00;98088.22;8378799;28;20433;-70
2023/05/02 04:58:20;;;;;;;9.23;8.17;;;;;;;12.56;57.36;98106.53;8377765;28;20268;-70
2023/05/02 05:02:25;;;;;;;9.07;8.17;;;;;;;12.81;59.26;98100.09;8378180;28;20396;-70
2023/05/02 05:06:28;;;;;;;8.57;7.83;;;;;;;12.72;57.78;98104.03;8378253;28;20532;-70
2023/05/02 05:10:31;;;;;;;9.27;8.37;;;;;;;12.86;58.01;98117.13;8378791;28;20232;-70
2023/05/02 05:14:34;;;;;;;9.57;8.60;;;;;;;12.79;57.35;98113.16;8378357;28;20225;-71
2023/05/02 05:18:40;;;;;;;8.90;8.00;;;;;;;13.01;57.20;98115.50;8378698;28;20252;-70
2023/05/02 05:22:43;;;;;;;9.77;8.87;;;;;;;12.93;57.74;98130.66;8378787;28;20225;-70
2023/05/02 05:26:45;;;;;;;10.40;9.50;;;;;;;12.85;57.89;98097.28;8383953;28;20221;-70
2023/05/02 05:30:50;;;;;;;9.97;8.97;;;;;;;13.25;58.47;98131.59;8378946;28;20228;-70
2023/05/02 05:34:55;;;;;;;8.80;8.00;;;;;;;13.22;57.92;98141.31;8377104;28;20249;-70
2023/05/02 05:38:57;;;;;;;10.13;8.60;;;;;;;13.22;57.49;98138.72;8378216;28;20520;-70
2023/05/02 05:43:03;;;;;;;9.43;8.47;;;;;;;13.23;57.79;98140.38;8378623;28;20221;-71
2023/05/02 05:47:06;;;;;;;9.10;8.30;;;;;;;13.25;58.06;98149.81;8378436;28;20229;-71
2023/05/02 05:51:10;;;;;;;10.57;8.70;;;;;;;13.31;57.84;98156.47;8377996;28;20292;-70
2023/05/02 05:55:13;;;;;;;9.63;8.70;;;;;;;13.40;57.80;98157.72;8375462;28;20221;-70
2023/05/02 05:59:16;;;;;;;10.00;9.20;;;;;;;13.28;58.22;98154.81;8378031;28;20308;-70
2023/05/02 06:03:19;;;;;;;10.40;9.40;;;;;;;13.33;57.49;98166.78;8377085;28;20237;-71
2023/05/02 06:07:24;;;;;;;9.33;8.50;;;;;;;13.41;57.90;98181.06;8377904;28;20239;-71
2023/05/02 06:11:26;;;;;;;9.43;8.43;;;;;;;13.68;58.63;98188.34;8377414;28;20232;-69
2023/05/02 06:15:29;;;;;;;9.33;8.50;;;;;;;13.67;57.85;98199.69;8377339;28;20237;-69
2023/05/02 06:19:32;;;;;;;9.20;8.43;;;;;;;13.68;58.13;98198.75;8377932;28;20536;-70
2023/05/02 06:23:36;;;;;;;10.07;9.07;;;;;;;13.71;57.79;98208.16;8377249;28;20305;-70
2023/05/02 06:27:42;;;;;;;9.60;8.60;;;;;;;13.67;57.51;98204.91;8377810;28;20535;-70
2023/05/02 06:31:45;;;;;;;9.33;8.37;;;;;;;13.82;57.20;98224.03;8377515;28;20229;-70
2023/05/02 06:35:53;;;;;;;9.20;8.40;;;;;;;13.28;57.91;98133.19;8376397;28;20400;-70
2023/05/02 06:39:57;;;;;;;9.63;8.73;;;;;;;13.74;58.31;98227.03;8376746;28;20233;-69
2023/05/02 06:44:01;;;;;;;9.43;8.47;;;;;;;13.81;58.52;98235.38;8376655;28;20265;-71
2023/05/02 06:48:04;;;;;;;11.30;9.00;;;;;;;13.93;58.34;98244.28;8380706;28;20537;-69
2023/05/02 06:52:07;;;;;;;9.93;8.93;;;;;;;13.96;57.80;98251.94;8383578;28;20252;-69
2023/05/02 06:56:13;;;;;;;9.90;8.80;;;;;;;13.96;57.95;98254.56;8383042;28;20229;-69
2023/05/02 07:00:20;;;;;;;9.80;8.77;;;;;;;13.97;58.61;98261.44;8382602;28;20234;-70
2023/05/02 07:04:26;;;;;;;10.40;9.00;;;;;;;13.89;58.92;98260.06;8382044;28;20230;-70
2023/05/02 07:08:31;;;;;;;9.27;8.47;;;;;;;13.99;59.01;98267.38;8382815;28;20370;-70
2023/05/02 07:12:35;;;;;;;8.80;7.93;;;;;;;14.12;58.88;98275.41;8382472;28;20251;-70
2023/05/02 07:16:37;;;;;;;9.23;8.43;;;;;;;13.99;59.30;98254.38;8382643;28;20404;-69
2023/05/02 07:20:41;;;;;;;10.83;7.83;;;;;;;14.23;59.29;98286.06;8382491;28;20238;-69
2023/05/02 07:24:44;;;;;;;9.53;7.87;;;;;;;14.28;59.77;98287.50;8382342;28;20230;-69
2023/05/02 07:28:48;;;;;;;9.00;8.20;;;;;;;14.31;59.78;98290.88;8382113;28;20226;-70
2023/05/02 07:32:54;;;;;;;9.07;8.37;;;;;;;14.37;60.38;98291.34;8382207;28;20230;-70
2023/05/02 07:36:57;;;;;;;9.83;8.83;;;;;;;14.38;60.79;98287.84;8382043;28;20300;-70
2023/05/02 07:41:01;;;;;;;9.17;8.27;;;;;;;14.44;60.10;98287.50;8380942;28;20234;-70
2023/05/02 07:45:08;;;;;;;8.30;7.50;;;;;;;14.70;60.47;98300.91;8380410;28;20231;-70
2023/05/02 07:49:11;;;;;;;8.77;7.97;;;;;;;14.81;60.45;98306.34;8381031;28;20507;-70
2023/05/02 07:53:13;;;;;;;8.57;7.87;;;;;;;14.91;59.46;98298.00;8380729;28;20322;-70
2023/05/02 07:57:16;;;;;;;8.53;7.83;;;;;;;14.91;59.42;98285.81;8386429;28;20234;-70
2023/05/02 08:01:22;;;;;;;8.20;7.60;;;;;;;15.16;58.65;98308.72;8379435;28;20244;-71
2023/05/02 08:05:25;;;;;;;7.33;6.73;;;;;;;15.34;59.05;98319.00;8379941;28;20366;-71
2023/05/02 08:09:28;;;;;;;8.13;7.43;;;;;;;15.57;58.77;98309.84;8380233;28;20243;-70
2023/05/02 08:13:31;;;;;;;7.73;7.17;;;;;;;15.66;58.80;98309.28;8379605;28;20290;-70
2023/05/02 08:17:39;;;;;;;7.90;7.30;;;;;;;15.72;59.33;98323.75;8380702;28;20250;-70
2023/05/02 08:21:42;;;;;;;8.23;7.50;;;;;;;15.90;59.42;98333.13;8380192;28;20237;-71
2023/05/02 08:25:48;;;;;;;7.17;6.57;;;;;;;16.34;58.67;98329.56;8379839;28;20320;-71
2023/05/02 08:29:53;;;;;;;6.90;6.30;;;;;;;16.85;57.59;98326.41;8380208;28;20535;-70
2023/05/02 08:33:58;;;;;;;6.47;5.87;;;;;;;16.84;56.74;98344.81;8380461;28;20238;-70
2023/05/02 08:38:00;;;;;;;6.40;5.90;;;;;;;16.85;56.63;98336.00;8379557;28;20232;-70
2023/05/02 08:42:06;;;;;;;6.23;5.63;;;;;;;17.10;55.18;98337.91;8379126;28;20253;-71
2023/05/02 08:46:10;;;;;;;6.30;5.70;;;;;;;18.08;53.13;98339.19;8379414;28;20603;-70
2023/05/02 08:50:15;;;;;;;5.10;4.57;;;;;;;18.70;51.77;98337.50;8379040;28;20225;-70
2023/05/02 08:54:24;;;;;;;8.00;6.20;;;;;;;17.85;54.47;98340.78;8376602;28;20227;-71
2023/05/02 08:58:27;;;;;;;5.43;5.03;;;;;;;19.07;48.94;98351.44;8385447;28;20243;-70
2023/05/02 09:02:54;;;;;;;6.57;6.07;;;;;;;19.83;48.77;98356.38;8378561;28;20236;-71
2023/05/02 09:07:04;;;;;;;7.97;5.20;;;;;;;20.71;47.33;98345.16;8378167;28;20494;-70
2023/05/02 09:11:12;;;;;;;6.23;5.67;;;;;;;20.88;45.27;98349.06;8377587;28;20228;-70
2023/05/02 09:15:17;;;;;;;6.03;5.53;;;;;;;21.09;43.18;98367.56;8372496;28;20237;-70
2023/05/02 09:19:26;;;;;;;6.17;5.57;;;;;;;21.41;42.58;98353.56;8377284;28;20248;-71
2023/05/02 09:23:39;;;;;;;5.63;5.23;;;;;;;21.06;42.15;98365.19;8364954;28;20237;-71
2023/05/02 09:27:52;;;;;;;3.50;3.20;;;;;;;22.38;44.31;98359.44;8376906;28;20224;-70
2023/05/02 09:31:55;;;;;;;3.63;3.10;;;;;;;23.16;44.86;98364.09;8377256;28;20350;-70
2023/05/02 09:35:58;;;;;;;3.13;2.83;;;;;;;23.26;44.15;98361.44;8375507;28;20328;-70
2023/05/02 09:40:08;;;;;;;3.57;3.27;;;;;;;22.56;44.17;98343.81;8377175;28;20244;-70
2023/05/02 09:44:14;;;;;;;5.00;4.60;;;;;;;21.69;42.73;98369.75;8376839;28;20524;-70
2023/05/02 09:48:17;;;;;;;4.50;4.00;;;;;;;20.98;46.25;98375.47;8377097;28;20517;-70
2023/05/02 09:52:21;;;;;;;3.87;3.57;;;;;;;21.54;45.61;98380.59;8376059;28;20424;-70
2023/05/02 09:56:26;;;;;;;4.60;4.20;;;;;;;21.52;44.86;98373.78;8375462;28;20225;-70
2023/05/02 10:00:44;;;;;;;3.70;3.40;;;;;;;22.84;40.24;98371.22;8376418;28;20311;-70
2023/05/02 10:04:47;;;;;;;4.07;3.70;;;;;;;23.27;39.85;98378.97;8376311;28;20267;-68
2023/05/02 10:08:51;;;;;;;4.80;4.40;;;;;;;22.09;41.24;98363.72;8376495;28;20480;-70
2023/05/02 10:12:55;;;;;;;3.50;3.30;;;;;;;21.88;43.72;98376.94;8376154;28;20232;-70
2023/05/02 10:17:01;;;;;;;6.80;5.30;;;;;;;22.48;37.37;98371.84;8375780;28;20229;-69
2023/05/02 10:21:08;;;;;;;6.17;5.50;;;;;;;21.85;40.77;98354.28;8376409;28;20233;-69
2023/05/02 10:25:12;;;;;;;3.30;3.10;;;;;;;22.40;41.63;98367.22;8383566;28;20229;-69
2023/05/02 10:29:16;;;;;;;3.17;2.97;;;;;;;21.83;43.36;98380.78;8382572;28;20428;-69
2023/05/02 10:33:20;;;;;;;3.47;3.17;;;;;;;22.02;43.59;98371.31;8382283;28;20244;-70
2023/05/02 10:37:23;;;;;;;3.50;3.20;;;;;;;22.60;38.99;98368.97;8382611;28;20237;-70
2023/05/02 10:41:28;;;;;;;4.37;3.80;;;;;;;21.59;43.34;98374.91;8382564;28;20525;-70
2023/05/02 10:45:34;;;;;;;4.73;3.43;;;;;;;21.61;44.59;98365.94;8382324;28;20339;-70
2023/05/02 10:49:49;;;;;;;2.60;2.40;;;;;;;21.46;45.06;98338.25;8382784;28;20422;-70
2023/05/02 10:53:56;;;;;;;2.80;2.60;;;;;;;21.64;45.11;98370.09;8382984;28;20225;-69
2023/05/02 10:58:22;;;;;;;3.40;3.20;;;;;;;22.91;41.46;98354.88;8382469;28;20232;-70
2023/05/02 11:02:52;;;;;;;3.70;3.40;;;;;;;23.36;39.14;98357.84;8382186;28;20320;-70
2023/05/02 11:07:17;;;;;;;3.90;3.47;;;;;;;23.76;38.43;98359.47;8382392;28;20225;-70
2023/05/02 11:11:40;;;;;;;4.77;4.37;;;;;;;24.18;36.15;98361.75;8381756;28;20497;-70
2023/05/02 11:15:56;;;;;;;3.50;3.20;;;;;;;22.96;39.72;98360.53;8382112;28;20252;-70
2023/05/02 11:20:25;;;;;;;3.87;3.50;;;;;;;22.15;42.72;98365.84;8381760;28;20490;-70
2023/05/02 11:24:37;;;;;;;2.90;2.30;;;;;;;21.76;44.47;98373.50;8381175;28;20252;-70
2023/05/02 11:28:46;;;;;;;2.50;2.30;;;;;;;21.47;43.77;98377.59;8381426;28;20221;-70
2023/05/02 11:33:14;;;;;;;3.57;2.10;;;;;;;21.01;45.16;98365.53;8381199;28;20225;-70
2023/05/02 11:37:20;;;;;;;3.07;1.90;;;;;;;20.75;46.85;98361.53;8381202;28;20397;-70
2023/05/02 11:41:23;;;;;;;2.70;2.50;;;;;;;20.78;46.26;98348.16;8380833;28;20232;-70
2023/05/02 11:45:33;;;;;;;4.23;2.80;;;;;;;20.71;46.77;98374.09;8381383;28;20228;-70
2023/05/02 11:49:37;;;;;;;5.10;2.60;;;;;;;20.53;47.47;98371.13;8381123;28;20535;-70
2023/05/02 11:53:42;;;;;;;8.13;3.27;;;;;;;20.28;48.45;98367.78;8380311;28;20229;-70
2023/05/02 11:57:44;;;;;;;4.27;2.60;;;;;;;20.35;48.96;98385.69;8381336;28;20246;-69
2023/05/02 12:01:52;;;;;;;8.27;2.97;;;;;;;20.35;49.12;98381.28;8381228;28;20236;-70
2023/05/02 12:05:55;;;;;;;4.57;3.13;;;;;;;20.21;49.16;98377.09;8380864;28;20251;-70
2023/05/02 12:10:00;;;;;;;6.53;2.90;;;;;;;20.33;49.59;98387.63;8380536;28;20230;-69
2023/05/02 12:14:03;;;;;;;3.03;2.73;;;;;;;20.33;49.51;98388.44;8380919;28;20233;-70
2023/05/02 12:18:06;;;;;;;5.47;2.77;;;;;;;20.34;49.13;98395.38;8380137;28;20225;-71
2023/05/02 12:22:10;;;;;;;6.97;2.70;;;;;;;20.28;49.88;98435.31;8380137;28;20229;-69
2023/05/02 12:26:23;;;;;;;5.80;5.40;;;;;;;17.52;53.58;98440.75;8379882;28;20221;-70
2023/05/02 12:30:26;;;;;;;5.80;5.20;;;;;;;16.89;55.49;98436.91;8379104;28;20228;-70
2023/05/02 12:34:32;;;;;;;5.00;4.17;;;;;;;16.91;55.76;98456.81;8379328;28;20259;-71
2023/05/02 12:38:36;;;;;;;4.00;3.10;;;;;;;17.02;55.24;98447.44;8379901;28;20229;-70
2023/05/02 12:42:40;;;;;;;3.13;2.93;;;;;;;16.77;54.58;98455.03;8378129;28;20531;-70
2023/05/02 12:46:58;;;;;;;2.73;2.50;;;;;;;16.73;55.00;98439.59;8378582;28;20221;-70
2023/05/02 12:51:01;;;;;;;3.40;3.20;;;;;;;16.69;55.48;98461.66;8379164;28;20300;-69
2023/05/02 12:55:17;;;;;;;2.57;2.37;;;;;;;16.58;56.24;98457.94;8379747;28;20239;-69
2023/05/02 12:59:32;;;;;;;2.23;2.07;;;;;;;16.65;56.19;98463.59;8378820;28;20231;-70
2023/05/02 13:03:35;;;;;;;2.67;2.43;;;;;;;16.47;55.62;98412.44;8378631;28;20240;-69
2023/05/02 13:07:40;;;;;;;3.00;2.70;;;;;;;16.81;55.54;98448.66;8378167;28;20242;-67
2023/05/02 13:11:43;;;;;;;2.40;2.27;;;;;;;17.29;54.90;98448.31;8378949;28;20231;-67
2023/05/02 13:15:47;;;;;;;2.30;2.20;;;;;;;18.81;52.75;98423.31;8378598;28;20224;-68
2023/05/02 13:19:50;;;;;;;2.87;2.30;;;;;;;18.77;51.07;98446.28;8378633;28;20415;-68
2023/05/02 13:24:04;;;;;;;2.30;2.10;;;;;;;19.97;49.56;98442.06;8378317;28;20236;-68
2023/05/02 13:28:07;;;;;;;1.80;1.70;;;;;;;20.20;47.91;98435.91;8378320;28;20235;-68
2023/05/02 13:32:11;;;;;;;1.60;1.50;;;;;;;20.86;48.48;98437.84;8378082;28;20435;-69
2023/05/02 13:36:14;;;;;;;1.53;1.40;;;;;;;20.82;46.24;98445.16;8377968;28;20309;-69
2023/05/02 13:40:17;;;;;;;0.90;0.90;;;;;;;20.81;46.57;98432.97;8378318;28;20518;-68
2023/05/02 13:44:20;;;;;;;0.83;0.83;;;;;;;21.17;46.16;98432.75;8377976;28;20287;-68
2023/05/02 13:48:24;;;;;;;0.80;0.80;;;;;;;20.53;46.99;98428.16;8378283;28;20239;-69
2023/05/02 13:52:27;;;;;;;1.10;1.10;;;;;;;20.46;46.49;98407.56;8378435;28;20237;-68
2023/05/02 13:56:30;;;;;;;1.60;1.50;;;;;;;20.78;46.91;98433.19;8377726;28;20224;-68
2023/05/02 14:00:33;;;;;;;2.23;1.50;;;;;;;20.20;48.17;98419.28;8378321;28;20250;-68
2023/05/02 14:04:37;;;;;;;1.10;1.10;;;;;;;20.13;47.46;98420.72;8377265;28;20519;-68
2023/05/02 14:08:40;;;;;;;1.60;1.20;;;;;;;20.76;45.37;98421.13;8377908;28;20235;-69
2023/05/02 14:12:43;;;;;;;1.00;1.00;;;;;;;20.77;45.53;98426.28;8377732;28;20524;-68
2023/05/02 14:16:49;;;;;;;1.40;1.30;;;;;;;20.84;45.24;98389.75;8377306;28;20403;-68
2023/05/02 14:20:54;;;;;;;1.47;1.40;;;;;;;21.26;44.44;98427.59;8377363;28;20307;-68
2023/05/02 14:24:57;;;;;;;2.03;1.50;;;;;;;21.31;43.10;98429.88;8377105;28;20226;-68
2023/05/02 14:28:59;;;;;;;8.70;8.00;;;;;;;21.53;42.70;98431.59;8377080;28;20228;-68
2023/05/02 14:33:02;;;;;;;2.90;2.70;;;;;;;21.12;44.56;98416.53;8377146;28;20515;-68
2023/05/02 14:37:07;;;;;;;1.67;1.57;;;;;;;21.26;43.52;98427.59;8377104;28;20243;-69
2023/05/02 14:41:10;;;;;;;1.90;1.80;;;;;;;21.14;41.46;98425.97;8377277;28;20217;-68
2023/05/02 14:45:13;;;;;;;1.90;1.80;;;;;;;21.16;41.23;98425.84;8376978;28;20335;-68
2023/05/02 14:49:16;;;;;;;2.90;1.70;;;;;;;21.41;41.44;98416.78;8376701;28;20236;-68
2023/05/02 14:53:21;;;;;;;2.47;2.23;;;;;;;21.47;42.15;98421.56;8375981;28;20248;-70
2023/05/02 14:57:24;;;;;;;2.60;2.17;;;;;;;21.34;42.77;98410.31;8376713;28;20232;-69
2023/05/02 15:01:27;;;;;;;1.87;1.77;;;;;;;21.53;42.46;98426.31;8376686;28;20237;-68
2023/05/02 15:05:31;;;;;;;2.30;2.20;;;;;;;21.31;42.90;98421.97;8375611;28;20309;-69
2023/05/02 15:09:35;;;;;;;2.13;1.93;;;;;;;21.44;41.15;98427.94;8380461;28;20414;-69
2023/05/02 15:13:38;;;;;;;2.33;2.17;;;;;;;21.35;40.22;98427.81;8381976;28;20241;-69
2023/05/02 15:17:40;;;;;;;2.73;2.17;;;;;;;21.22;41.53;98420.91;8382139;28;20256;-69
2023/05/02 15:21:43;;;;;;;2.20;2.00;;;;;;;21.23;40.54;98427.03;8381699;28;20232;-70
2023/05/02 15:25:50;;;;;;;2.70;2.50;;;;;;;20.97;39.60;98418.59;8381889;28;20228;-69
2023/05/02 15:29:54;;;;;;;2.70;2.50;;;;;;;21.03;39.77;98420.72;8381606;28;20303;-69
2023/05/02 15:33:56;;;;;;;3.40;3.10;;;;;;;20.95;41.40;98431.84;8381778;28;20236;-69
2023/05/02 15:37:59;;;;;;;3.37;3.10;;;;;;;20.89;40.43;98430.56;8381424;28;20232;-69
2023/05/02 15:42:06;;;;;;;3.20;3.00;;;;;;;20.76;40.86;98432.47;8381483;28;20224;-69
2023/05/02 15:46:09;;;;;;;4.07;3.40;;;;;;;20.81;42.96;98437.38;8381317;28;20244;-69
2023/05/02 15:50:12;;;;;;;3.70;3.50;;;;;;;20.44;41.75;98432.34;8381152;28;20434;-69
2023/05/02 15:54:15;;;;;;;3.77;3.50;;;;;;;20.50;42.32;98423.97;8380834;28;20228;-69
2023/05/02 15:58:19;;;;;;;5.63;3.60;;;;;;;20.31;42.53;98429.81;8380611;28;20230;-70
2023/05/02 16:02:22;;;;;;;3.57;3.33;;;;;;;19.93;41.23;98428.31;8380949;28;20304;-69
2023/05/02 16:06:26;;;;;;;3.93;3.60;;;;;;;19.97;42.68;98440.28;8380453;28;20229;-70
2023/05/02 16:10:29;;;;;;;8.13;4.03;;;;;;;19.64;44.04;98433.91;8379483;28;20241;-69
2023/05/02 16:14:33;;;;;;;4.60;3.50;;;;;;;19.62;43.79;98435.81;8380520;28;20229;-69
2023/05/02 16:18:36;;;;;;;4.13;3.70;;;;;;;19.62;44.55;98433.19;8380224;28;20237;-69
2023/05/02 16:22:40;;;;;;;5.20;4.30;;;;;;;19.58;44.42;98434.38;8379911;28;20225;-69
2023/05/02 16:26:42;;;;;;;4.43;4.03;;;;;;;19.58;44.49;98437.00;8380130;28;20221;-69
2023/05/02 16:30:46;;;;;;;3.93;3.50;;;;;;;19.68;44.03;98445.03;8380117;28;20225;-69
2023/05/02 16:34:49;;;;;;;4.57;3.90;;;;;;;19.37;44.86;98444.69;8379454;28;20539;-69
2023/05/02 16:38:52;;;;;;;4.10;3.80;;;;;;;19.11;44.80;98423.78;8379959;28;20451;-69
2023/05/02 16:42:55;;;;;;;3.90;3.60;;;;;;;18.99;44.94;98436.94;8380245;28;20545;-69
2023/05/02 16:46:59;;;;;;;3.30;3.10;;;;;;;19.02;46.09;98442.81;8380135;28;20221;-69
2023/05/02 16:51:02;;;;;;;3.90;3.63;;;;;;;18.84;46.00;98455.44;8379930;28;20579;-70
2023/05/02 16:55:07;;;;;;;3.53;3.30;;;;;;;18.51;47.54;98477.81;8379162;28;20230;-70
2023/05/02 16:59:10;;;;;;;3.80;3.40;;;;;;;17.44;48.88;98477.91;8379528;28;20422;-70
2023/05/02 17:03:15;;;;;;;2.37;2.27;;;;;;;17.17;47.45;98463.03;8379976;28;20248;-69
2023/05/02 17:07:20;;;;;;;1.90;1.80;;;;;;;16.79;45.74;98468.84;8379327;28;20221;-69
2023/05/02 17:11:27;;;;;;;3.17;1.60;;;;;;;16.95;45.20;98476.59;8379450;28;20573;-71
2023/05/02 17:15:30;;;;;;;1.80;1.70;;;;;;;17.03;45.89;98473.50;8379448;28;20227;-70
2023/05/02 17:19:34;;;;;;;2.60;1.90;;;;;;;17.43;45.53;98491.09;8379580;28;20233;-70
2023/05/02 17:23:37;;;;;;;3.03;2.30;;;;;;;17.47;45.96;98482.09;8379101;28;20232;-69
2023/05/02 17:27:43;;;;;;;2.37;2.17;;;;;;;17.55;46.16;98493.75;8379201;28;20252;-70
2023/05/02 17:31:45;;;;;;;3.50;2.30;;;;;;;17.56;46.50;98478.88;8378174;28;20232;-69
2023/05/02 17:35:51;;;;;;;6.70;1.90;;;;;;;17.25;47.32;98506.16;8378930;28;20527;-70
2023/05/02 17:39:55;;;;;;;3.07;2.87;;;;;;;17.57;49.63;98514.59;8378353;28;20239;-69
2023/05/02 17:43:58;;;;;;;3.93;3.57;;;;;;;17.65;50.14;98511.47;8378203;28;20231;-69
2023/05/02 17:48:02;;;;;;;6.20;3.63;;;;;;;17.67;51.50;98522.69;8377878;28;20239;-69
2023/05/02 17:52:11;;;;;;;5.50;4.53;;;;;;;17.58;51.10;98529.38;8378011;28;20235;-68
2023/05/02 17:56:17;;;;;;;4.47;4.07;;;;;;;17.63;51.01;98527.31;8378067;28;20235;-68
2023/05/02 18:00:21;;;;;;;4.83;4.43;;;;;;;17.71;51.58;98539.91;8377491;28;20229;-69
2023/05/02 18:04:24;;;;;;;5.20;4.70;;;;;;;17.70;52.24;98538.22;8377343;28;20236;-69
2023/05/02 18:08:30;;;;;;;5.37;4.87;;;;;;;17.64;52.13;98544.69;8377018;28;20232;-68
2023/05/02 18:12:32;;;;;;;6.43;5.93;;;;;;;17.58;52.33;98537.22;8377418;28;20415;-69
2023/05/02 18:16:35;;;;;;;5.30;4.90;;;;;;;17.48;53.15;98547.47;8377235;28;20515;-69
2023/05/02 18:20:39;;;;;;;5.70;5.30;;;;;;;17.17;53.75;98553.75;8383636;28;20239;-71
2023/05/02 18:24:43;;;;;;;5.73;5.07;;;;;;;17.46;53.37;98556.31;8377102;28;20437;-71
2023/05/02 18:28:51;;;;;;;5.47;5.07;;;;;;;17.25;54.20;98554.16;8377252;28;20229;-71
2023/05/02 18:32:55;;;;;;;5.40;4.93;;;;;;;17.26;54.37;98558.44;8377037;28;20228;-71
2023/05/02 18:37:00;;;;;;;5.80;5.30;;;;;;;17.15;54.62;98566.09;8376308;28;20234;-70
2023/05/02 18:41:07;;;;;;;6.10;5.50;;;;;;;17.12;54.79;98576.78;8376691;28;20236;-71
2023/05/02 18:45:10;;;;;;;6.43;5.83;;;;;;;17.05;55.14;98580.69;8381818;28;20284;-71
2023/05/02 18:49:13;;;;;;;6.23;5.70;;;;;;;17.04;54.96;98590.31;8383227;28;20225;-71
2023/05/02 18:53:18;;;;;;;4.97;4.57;;;;;;;16.88;53.66;98586.94;8382938;28;20226;-71
2023/05/02 18:57:25;;;;;;;4.80;4.37;;;;;;;16.86;53.13;98605.34;8381125;28;20236;-73
2023/05/02 19:01:28;;;;;;;6.77;3.10;;;;;;;17.63;63.54;98605.88;8382927;28;20234;-69
2023/05/02 19:05:33;;;;;;;6.13;3.40;;;;;;;17.83;61.04;98606.38;8382654;28;20240;-69
2023/05/02 19:09:36;;;;;;;4.87;3.00;;;;;;;17.91;52.50;98612.84;8382814;28;20332;-70
2023/05/02 19:13:40;;;;;;;4.43;3.87;;;;;;;17.13;51.50;98622.94;8382657;28;20231;-70